Weather at Alfonso Bonilla Aragon International Airport

Public forecast

Using degrees Celsius for public forecast. Weather courtesy of forecast.io.

Current aviation weather report (METAR) for Alfonso Bonilla Aragon International Airport

2024/05/29 00:00 (retrieved 11 minutes ago)

SKCL 290000Z 32010KT 9999 FEW025 BKN120 26/20 Q1014 NOSIG

Closest aviation forecast (TAF) to Alfonso Bonilla Aragon International Airport

Forecast is more than 12 hours old.

Closest forecast is Kamarang Airport, 953.7 nm (1,766.2 km) E.

2024/05/28 12:00 (retrieved 12 hours ago)

TAF SYKM 281100Z 2812/2823 08006KT 5000 TS SHRA FEW013CB BKN014 OVC032